Time;durP1;ratioP1;P1;durP2;ratioP2;P2;SDS_P1;SDS_P2;PMS_P1;PMS_P2;Temp;Humidity;BMP_temperature;BMP_pressure;BME280_temperature;BME280_humidity;BME280_pressure;Samples;Min_cycle;Max_cycle;Signal;HPM_P1;HPM_P2
2022/06/24 00:02:08;;;;;;;;;8.33;5.33;;;;;25.85;100.00;100511.06;5098743;27;45444;-75
2022/06/24 00:04:34;;;;;;;;;8.00;7.00;;;;;25.41;94.74;100503.63;5099682;27;45247;-74
2022/06/24 00:06:59;;;;;;;;;8.00;7.00;;;;;24.91;97.33;100500.94;5099033;27;46342;-75
2022/06/24 00:09:29;;;;;;;;;5.67;5.67;;;;;24.52;100.00;100502.97;5071504;27;45352;-74
2022/06/24 00:12:10;;;;;;;;;5.67;5.67;;;;;24.20;100.00;100517.22;5071860;28;45245;-73
2022/06/24 00:14:37;;;;;;;;;9.00;6.00;;;;;23.96;100.00;100533.66;5074906;28;45356;-74
2022/06/24 00:17:04;;;;;;;;;8.67;6.33;;;;;23.80;100.00;100524.56;5078776;28;46724;-74
2022/06/24 00:19:31;;;;;;;;;10.33;7.33;;;;;23.67;100.00;100520.72;5068744;28;45494;-74
2022/06/24 00:22:03;;;;;;;;;7.00;7.00;;;;;23.57;100.00;100527.47;5075347;28;45273;-74
2022/06/24 00:24:30;;;;;;;;;7.00;6.00;;;;;23.49;100.00;100522.47;5078340;28;45323;-74
2022/06/24 00:26:55;;;;;;;;;10.00;8.00;;;;;23.44;100.00;100522.66;5078176;28;46595;-74
2022/06/24 00:29:21;;;;;;;;;8.00;6.00;;;;;23.38;100.00;100514.84;5078820;28;45267;-74
2022/06/24 00:32:03;;;;;;;;;8.00;6.00;;;;;23.37;100.00;100512.22;5074988;27;45335;-74
2022/06/24 00:34:29;;;;;;;;;5.67;5.67;;;;;23.37;100.00;100514.94;5086415;27;45407;-74
2022/06/24 00:36:54;;;;;;;;;9.00;8.00;;;;;23.37;100.00;100513.09;5071422;28;46612;-74
2022/06/24 00:39:19;;;;;;;;;5.67;5.67;;;;;23.37;100.00;100518.50;5077973;28;55346;-74
2022/06/24 00:41:52;;;;;;;;;6.00;6.00;;;;;23.39;100.00;100521.13;5078013;28;62594;-72
2022/06/24 00:44:17;;;;;;;;;7.00;6.00;;;;;23.39;100.00;100526.53;5069237;28;58283;-74
2022/06/24 00:46:44;;;;;;;;;10.33;7.00;;;;;23.41;100.00;100524.63;5054583;28;73489;-74
2022/06/24 00:49:10;;;;;;;;;7.00;6.00;;;;;23.45;100.00;100521.72;5046948;27;64000;-75
2022/06/24 00:51:37;;;;;;;;;7.67;7.67;;;;;23.49;100.00;100523.34;5078502;28;45394;-74
2022/06/24 00:54:08;;;;;;;;;7.67;6.33;;;;;23.55;100.00;100526.69;5060200;28;46976;-74
2022/06/24 00:56:34;;;;;;;;;5.00;4.00;;;;;23.57;100.00;100519.38;5071336;28;47451;-74
2022/06/24 00:59:05;;;;;;;;;8.33;6.67;;;;;23.60;100.00;100514.72;5071441;27;45279;-75
2022/06/24 01:01:32;;;;;;;;;6.00;5.00;;;;;23.62;100.00;100518.22;5054969;28;45423;-74
2022/06/24 01:03:58;;;;;;;;;5.33;5.33;;;;;23.63;100.00;100521.81;5081969;27;45671;-74
2022/06/24 01:06:25;;;;;;;;;6.00;6.00;;;;;23.64;100.00;100510.06;5098311;27;47035;-74
2022/06/24 01:08:50;;;;;;;;;5.67;5.67;;;;;23.64;100.00;100515.47;5098007;27;45303;-74
2022/06/24 01:11:30;;;;;;;;;5.00;5.00;;;;;23.67;100.00;100515.34;5098703;27;45726;-74
2022/06/24 01:13:56;;;;;;;;;4.00;4.00;;;;;23.68;100.00;100509.00;5080340;27;45523;-73
2022/06/24 01:16:25;;;;;;;;;5.00;5.00;;;;;23.69;100.00;100518.81;5097997;27;47468;-74
2022/06/24 01:18:55;;;;;;;;;5.33;4.33;;;;;23.70;100.00;100507.09;5098337;27;45253;-74
2022/06/24 01:21:40;;;;;;;;;6.00;5.00;;;;;23.72;100.00;100502.50;5097963;27;45355;-74
2022/06/24 01:24:21;;;;;;;;;5.00;5.00;;;;;23.73;100.00;100496.16;5098445;27;45411;-74
2022/06/24 01:26:50;;;;;;;;;5.00;5.00;;;;;23.76;100.00;100501.41;5097577;27;46613;-75
2022/06/24 01:29:16;;;;;;;;;6.00;5.00;;;;;23.73;100.00;100488.94;5098188;27;45279;-74
2022/06/24 01:31:42;;;;;;;;;6.33;6.33;;;;;23.75;100.00;100502.34;5087406;27;45260;-73
2022/06/24 01:34:09;;;;;;;;;6.67;4.00;;;;;23.74;100.00;100497.91;5098182;27;45499;-74
2022/06/24 01:36:35;;;;;;;;;5.00;4.00;;;;;23.70;100.00;100494.50;5096930;27;46651;-74
2022/06/24 01:39:01;;;;;;;;;6.00;5.00;;;;;23.70;100.00;100490.91;5097952;27;45346;-74
2022/06/24 01:41:26;;;;;;;;;7.67;4.00;;;;;23.69;100.00;100492.72;5097316;27;45536;-74
2022/06/24 01:43:51;;;;;;;;;6.00;6.00;;;;;23.64;100.00;100496.59;5098011;27;45282;-75
2022/06/24 01:46:17;;;;;;;;;5.00;5.00;;;;;23.68;100.00;100503.59;5096853;27;68768;-74
2022/06/24 01:48:42;;;;;;;;;5.00;5.00;;;;;23.64;100.00;100535.22;5097377;27;56053;-74
2022/06/24 01:51:10;;;;;;;;;7.00;5.00;;;;;23.62;100.00;100558.66;5097265;27;65506;-74
2022/06/24 01:53:35;;;;;;;;;8.00;7.00;;;;;23.33;100.00;100564.50;5079401;27;45196;-75
2022/06/24 01:56:01;;;;;;;;;7.67;7.67;;;;;22.95;100.00;100559.03;5095163;27;46526;-75
2022/06/24 01:58:26;;;;;;;;;8.00;6.00;;;;;22.67;100.00;100551.28;5096500;27;45466;-75
2022/06/24 02:00:52;;;;;;;;;6.00;6.00;;;;;22.49;100.00;100555.66;5097907;27;45315;-74
2022/06/24 02:03:17;;;;;;;;;6.00;6.00;;;;;22.41;100.00;100558.66;5097421;27;45327;-76
2022/06/24 02:05:45;;;;;;;;;10.67;10.00;;;;;22.35;100.00;100556.22;5097092;27;46409;-76
2022/06/24 02:08:10;;;;;;;;;7.00;7.00;;;;;22.25;100.00;100538.72;5093393;27;45455;-75
2022/06/24 02:13:29;;;;;;;;;6.33;6.33;;;;;22.08;100.00;100536.69;5069393;28;45225;-75
2022/06/24 02:16:00;;;;;;;;;5.67;5.67;;;;;22.03;100.00;100532.44;5077033;28;45688;-74
2022/06/24 02:18:27;;;;;;;;;7.67;6.67;;;;;21.96;100.00;100531.84;5069553;28;45236;-76
2022/06/24 02:20:53;;;;;;;;;6.00;6.00;;;;;21.89;100.00;100522.25;5076966;28;45261;-76
2022/06/24 02:23:19;;;;;;;;;6.00;6.00;;;;;21.84;100.00;100514.41;5063728;28;45490;-75
2022/06/24 02:25:45;;;;;;;;;8.67;7.00;;;;;21.81;100.00;100514.50;5075944;28;46112;-75
2022/06/24 02:28:10;;;;;;;;;3.67;3.67;;;;;21.80;100.00;100518.13;5076821;28;45350;-75
2022/06/24 02:30:37;;;;;;;;;6.00;6.00;;;;;21.77;100.00;100517.38;5070776;28;45508;-76
2022/06/24 02:33:02;;;;;;;;;6.00;4.67;;;;;21.81;100.00;100530.63;5077853;28;45534;-74
2022/06/24 02:35:28;;;;;;;;;9.67;9.67;;;;;21.68;100.00;100541.00;5076891;28;48970;-75
2022/06/24 02:37:53;;;;;;;;;10.33;8.00;;;;;21.71;100.00;100545.38;5076120;28;63129;-75
2022/06/24 02:43:11;;;;;;;;;9.00;7.67;;;;;21.67;100.00;100504.31;5077475;28;45208;-76
2022/06/24 02:45:36;;;;;;;;;9.33;7.00;;;;;21.67;100.00;100488.19;5068903;28;45615;-74
2022/06/24 02:48:02;;;;;;;;;8.33;7.00;;;;;21.68;100.00;100497.16;5091102;27;62013;-76
2022/06/24 02:50:27;;;;;;;;;11.00;8.00;;;;;21.65;100.00;100498.13;5100963;27;45274;-75
2022/06/24 02:52:52;;;;;;;;;9.00;8.33;;;;;21.65;100.00;100500.81;5100473;27;52157;-75
2022/06/24 02:55:18;;;;;;;;;9.00;7.00;;;;;21.62;100.00;100500.06;5100794;27;46345;-76
2022/06/24 02:57:43;;;;;;;;;6.33;5.33;;;;;21.59;100.00;100497.50;5083309;27;61709;-74
2022/06/24 03:00:09;;;;;;;;;7.67;7.33;;;;;21.54;100.00;100502.19;5079800;28;56565;-75
2022/06/24 03:02:34;;;;;;;;;9.00;8.00;;;;;21.54;100.00;100486.06;5079947;28;45601;-76
2022/06/24 03:04:59;;;;;;;;;6.33;5.00;;;;;21.53;100.00;100489.69;5091980;27;62487;-75
2022/06/24 03:07:25;;;;;;;;;7.00;7.00;;;;;21.51;100.00;100494.22;5099791;27;64996;-75
2022/06/24 03:09:50;;;;;;;;;8.00;7.67;;;;;21.49;100.00;100494.31;5100201;27;45641;-76
2022/06/24 03:12:15;;;;;;;;;9.00;9.00;;;;;21.49;100.00;100501.50;5081102;27;60732;-75
2022/06/24 03:14:42;;;;;;;;;7.00;7.00;;;;;21.49;100.00;100493.44;5099907;27;46871;-76
2022/06/24 03:17:07;;;;;;;;;7.00;7.00;;;;;21.49;100.00;100497.00;5099277;27;56272;-75
2022/06/24 03:19:33;;;;;;;;;12.00;8.00;;;;;21.51;100.00;100488.84;5100444;27;45292;-74
2022/06/24 03:21:58;;;;;;;;;8.00;8.00;;;;;21.54;100.00;100486.06;5099292;27;58805;-76
2022/06/24 03:24:23;;;;;;;;;6.67;6.67;;;;;21.54;100.00;100483.38;5099630;27;63511;-75
2022/06/24 03:26:49;;;;;;;;;9.00;9.00;;;;;21.56;100.00;100489.56;5099232;27;61605;-75
2022/06/24 03:29:14;;;;;;;;;7.00;7.00;;;;;21.57;100.00;100478.78;5100509;27;45305;-76
2022/06/24 03:31:39;;;;;;;;;7.00;7.00;;;;;21.60;100.00;100491.19;5085918;27;57519;-74
2022/06/24 03:34:04;;;;;;;;;8.67;7.00;;;;;21.64;100.00;100491.00;5099442;27;70795;-74
2022/06/24 03:36:30;;;;;;;;;9.00;7.33;;;;;21.66;100.00;100482.88;5099397;27;65036;-74
2022/06/24 03:38:55;;;;;;;;;6.67;6.33;;;;;21.69;100.00;100488.13;5100279;27;45982;-74
2022/06/24 03:41:20;;;;;;;;;7.00;7.00;;;;;21.71;100.00;100495.19;5099133;27;58058;-74
2022/06/24 03:43:46;;;;;;;;;6.00;6.00;;;;;21.75;100.00;100492.38;5099660;27;64405;-73
2022/06/24 03:46:11;;;;;;;;;7.00;7.00;;;;;21.74;100.00;100494.22;5099749;27;45407;-75
2022/06/24 03:48:37;;;;;;;;;6.00;6.00;;;;;21.75;100.00;100487.88;5099666;27;60412;-74
2022/06/24 03:51:02;;;;;;;;;8.00;7.00;;;;;21.76;100.00;100491.44;5100442;27;45367;-73
2022/06/24 03:53:31;;;;;;;;;5.33;5.33;;;;;21.74;100.00;100479.91;5099182;27;46647;-76
2022/06/24 03:55:56;;;;;;;;;6.67;6.00;;;;;21.71;100.00;100486.25;5098585;27;45458;-73
2022/06/24 03:58:21;;;;;;;;;5.00;5.00;;;;;21.66;100.00;100488.25;5094076;27;57740;-74
2022/06/24 04:00:47;;;;;;;;;5.67;5.00;;;;;21.58;100.00;100485.88;5098756;27;62511;-76
2022/06/24 04:03:12;;;;;;;;;5.00;5.00;;;;;21.53;100.00;100485.19;5099610;27;46422;-75
2022/06/24 04:05:38;;;;;;;;;6.00;6.00;;;;;21.48;100.00;100473.75;5098890;27;68120;-74
2022/06/24 04:08:04;;;;;;;;;6.67;6.67;;;;;21.47;100.00;100469.31;5067496;28;45438;-74
2022/06/24 04:10:29;;;;;;;;;7.67;7.00;;;;;21.46;100.00;100470.22;5079228;28;45528;-75
2022/06/24 04:12:54;;;;;;;;;6.00;5.00;;;;;21.50;100.00;100485.31;5078628;28;60584;-74
2022/06/24 04:15:20;;;;;;;;;6.67;6.67;;;;;21.52;100.00;100477.16;5079077;28;45429;-74
2022/06/24 04:17:47;;;;;;;;;8.67;7.00;;;;;21.57;100.00;100481.44;5079195;28;45408;-75
2022/06/24 04:20:19;;;;;;;;;5.00;5.00;;;;;21.61;100.00;100475.00;5065672;28;45482;-75
2022/06/24 04:22:45;;;;;;;;;7.67;5.67;;;;;21.66;100.00;100480.19;5077171;28;45665;-74
2022/06/24 04:25:11;;;;;;;;;6.00;6.00;;;;;21.70;100.00;100495.25;5076646;28;45554;-75
2022/06/24 04:27:37;;;;;;;;;8.00;6.33;;;;;21.74;100.00;100487.97;5067405;28;45385;-74
2022/06/24 04:30:07;;;;;;;;;7.00;7.00;;;;;21.78;100.00;100497.63;5060440;28;45460;-75
2022/06/24 04:32:32;;;;;;;;;5.00;5.00;;;;;21.77;100.00;100487.81;5078279;28;46394;-75
2022/06/24 04:34:58;;;;;;;;;6.67;6.33;;;;;21.79;100.00;100494.91;5078879;28;45268;-75
2022/06/24 04:37:23;;;;;;;;;6.00;6.00;;;;;21.82;100.00;100493.88;5079455;28;45287;-75
2022/06/24 04:39:49;;;;;;;;;6.00;6.00;;;;;21.85;100.00;100493.78;5078624;28;45314;-74
2022/06/24 04:42:14;;;;;;;;;5.00;5.00;;;;;21.88;100.00;100493.63;5077597;28;45758;-74
2022/06/24 04:44:40;;;;;;;;;6.67;6.67;;;;;21.91;100.00;100489.00;5078580;28;45446;-74
2022/06/24 04:47:05;;;;;;;;;9.33;7.67;;;;;21.91;100.00;100488.13;5079119;27;45409;-76
2022/06/24 04:49:32;;;;;;;;;7.67;6.33;;;;;21.93;100.00;100489.81;5068187;28;54142;-75
2022/06/24 04:51:57;;;;;;;;;8.00;8.00;;;;;21.95;100.00;100487.94;5078381;28;48126;-74
2022/06/24 04:54:23;;;;;;;;;7.00;7.00;;;;;22.01;100.00;100500.25;5078027;28;63760;-74
2022/06/24 04:56:48;;;;;;;;;5.67;5.67;;;;;22.05;100.00;100487.53;5064030;28;63802;-75
2022/06/24 04:59:14;;;;;;;;;7.33;7.33;;;;;22.11;100.00;100506.16;5078384;28;45435;-75
2022/06/24 05:01:39;;;;;;;;;10.67;6.67;;;;;22.11;100.00;100500.78;5077358;28;49917;-75
2022/06/24 05:04:05;;;;;;;;;8.00;6.00;;;;;22.08;100.00;100488.31;5082985;27;45514;-73
2022/06/24 05:06:30;;;;;;;;;5.00;5.00;;;;;22.06;100.00;100492.88;5080571;27;45229;-75
2022/06/24 05:08:56;;;;;;;;;5.33;5.33;;;;;22.04;100.00;100492.06;5089045;27;45489;-75
2022/06/24 05:11:21;;;;;;;;;7.00;6.00;;;;;22.03;100.00;100497.50;5092074;27;51494;-74
2022/06/24 05:13:46;;;;;;;;;8.00;7.00;;;;;21.98;100.00;100495.88;5098388;27;45425;-75
2022/06/24 05:16:12;;;;;;;;;6.00;6.00;;;;;21.98;100.00;100495.88;5097716;27;61069;-75
2022/06/24 05:18:37;;;;;;;;;7.67;6.33;;;;;21.99;100.00;100488.69;5096756;27;61069;-74
2022/06/24 05:21:02;;;;;;;;;6.00;6.00;;;;;22.01;100.00;100494.00;5097405;27;69671;-74
2022/06/24 05:23:28;;;;;;;;;8.67;7.00;;;;;22.03;100.00;100493.00;5097425;27;47304;-75
2022/06/24 05:25:54;;;;;;;;;7.00;6.33;;;;;22.04;100.00;100496.56;5098287;27;45394;-76
2022/06/24 05:28:19;;;;;;;;;7.00;7.00;;;;;22.01;100.00;100499.38;5099121;27;45346;-75
2022/06/24 05:30:44;;;;;;;;;6.33;6.33;;;;;22.03;100.00;100503.75;5097637;27;63902;-74
2022/06/24 05:33:10;;;;;;;;;6.00;6.00;;;;;22.07;100.00;100497.31;5097114;27;63380;-75
2022/06/24 05:35:36;;;;;;;;;6.00;6.00;;;;;22.10;100.00;100496.28;5098702;27;45358;-74
2022/06/24 05:38:01;;;;;;;;;7.00;6.00;;;;;22.14;100.00;100495.25;5098151;27;45471;-75
2022/06/24 05:40:26;;;;;;;;;7.00;6.00;;;;;22.19;100.00;100486.06;5097356;27;68202;-76
2022/06/24 05:42:52;;;;;;;;;8.00;7.00;;;;;22.21;100.00;100486.91;5097376;27;61741;-77
2022/06/24 05:45:17;;;;;;;;;8.00;8.00;;;;;22.24;100.00;100496.63;5092685;27;45578;-79
2022/06/24 05:47:43;;;;;;;;;10.33;7.67;;;;;22.27;100.00;100501.03;5096638;27;45568;-77
2022/06/24 05:50:09;;;;;;;;;8.67;7.67;;;;;22.31;100.00;100498.09;5097668;27;46392;-77
2022/06/24 05:55:18;;;;;;;;;11.67;10.00;;;;;22.37;100.00;100508.63;5097398;27;45423;-77
2022/06/24 05:57:43;;;;;;;;;15.33;14.00;;;;;22.39;100.00;100512.13;5094048;27;45575;-78
2022/06/24 06:00:09;;;;;;;;;10.67;9.00;;;;;22.42;100.00;100506.59;5095771;27;67856;-79
2022/06/24 06:02:35;;;;;;;;;7.67;7.67;;;;;22.47;100.00;100509.94;5096870;27;45465;-78
2022/06/24 06:05:00;;;;;;;;;7.33;6.67;;;;;22.47;100.00;100512.66;5158145;22;45653;-78
2022/06/24 06:07:26;;;;;;;;;6.00;6.00;;;;;22.48;100.00;100522.50;5056472;28;45419;-77
2022/06/24 06:09:51;;;;;;;;;7.00;7.00;;;;;22.48;100.00;100513.56;5066607;28;47218;-77
2022/06/24 06:12:17;;;;;;;;;9.00;7.33;;;;;22.46;100.00;100512.72;5066466;28;45265;-78
2022/06/24 06:14:44;;;;;;;;;5.33;5.33;;;;;22.48;100.00;100529.69;5056955;28;45416;-77
2022/06/24 06:17:10;;;;;;;;;5.00;5.00;;;;;22.48;100.00;100518.94;5056852;28;45394;-77
2022/06/24 06:19:35;;;;;;;;;8.00;6.00;;;;;22.49;100.00;100516.16;5056228;28;47043;-77
2022/06/24 06:22:02;;;;;;;;;7.67;7.67;;;;;22.49;100.00;100518.84;5057993;28;45414;-77
2022/06/24 06:24:29;;;;;;;;;6.00;5.00;;;;;22.53;100.00;100521.41;5068047;28;45456;-77
2022/06/24 06:26:54;;;;;;;;;7.33;5.33;;;;;22.54;100.00;100520.47;5080273;28;45340;-77
2022/06/24 06:29:20;;;;;;;;;5.33;5.00;;;;;22.53;100.00;100511.53;5067236;28;46329;-77
2022/06/24 06:31:45;;;;;;;;;5.00;4.00;;;;;22.53;100.00;100516.00;5056860;28;58046;-78
2022/06/24 06:34:11;;;;;;;;;4.67;4.67;;;;;22.53;100.00;100522.28;5061948;28;65152;-77
2022/06/24 06:36:37;;;;;;;;;8.33;6.00;;;;;22.56;100.00;100529.34;5063378;28;45332;-78
2022/06/24 06:39:02;;;;;;;;;6.00;6.00;;;;;22.56;100.00;100529.34;5076316;28;47250;-76
2022/06/24 06:41:27;;;;;;;;;7.33;5.67;;;;;22.54;100.00;100521.34;5063273;28;45297;-75
2022/06/24 06:43:53;;;;;;;;;8.00;6.00;;;;;22.48;100.00;100509.03;5062744;28;57863;-76
2022/06/24 06:46:18;;;;;;;;;5.00;5.00;;;;;22.51;100.00;100525.97;5062266;28;58140;-75
2022/06/24 06:48:43;;;;;;;;;4.33;4.33;;;;;22.49;100.00;100520.66;5062459;28;65510;-75
2022/06/24 06:51:09;;;;;;;;;4.00;4.00;;;;;22.47;100.00;100527.91;5064441;28;45483;-76
2022/06/24 06:53:34;;;;;;;;;6.00;4.67;;;;;22.48;100.00;100527.88;5070305;28;45495;-75
2022/06/24 06:56:00;;;;;;;;;6.00;6.00;;;;;22.44;100.00;100530.75;5067411;28;47694;-74
2022/06/24 06:58:25;;;;;;;;;6.00;4.00;;;;;22.45;100.00;100521.75;5057241;28;64778;-73
2022/06/24 07:00:51;;;;;;;;;5.00;5.00;;;;;22.48;100.00;100527.00;5051403;28;45446;-71
2022/06/24 07:03:16;;;;;;;;;6.00;5.67;;;;;22.48;100.00;100527.88;5059670;28;45427;-73
2022/06/24 07:05:45;;;;;;;;;7.00;6.00;;;;;22.54;100.00;100526.72;5060314;28;45422;-73
2022/06/24 07:08:11;;;;;;;;;6.67;4.67;;;;;22.57;100.00;100525.72;5056949;28;46491;-73
2022/06/24 07:10:38;;;;;;;;;7.33;6.00;;;;;22.58;100.00;100530.16;5052468;28;45488;-73
2022/06/24 07:13:04;;;;;;;;;6.00;6.00;;;;;22.63;100.00;100528.13;5054458;28;45466;-73
2022/06/24 07:15:29;;;;;;;;;6.00;5.33;;;;;22.69;100.00;100522.47;5045962;28;45194;-73
2022/06/24 07:17:54;;;;;;;;;6.00;5.00;;;;;22.77;100.00;100519.47;5055151;28;70392;-74
2022/06/24 07:20:20;;;;;;;;;5.67;4.00;;;;;22.83;100.00;100522.75;5057952;28;45863;-73
2022/06/24 07:22:45;;;;;;;;;4.00;4.00;;;;;22.90;100.00;100518.84;5059151;28;45492;-74
2022/06/24 07:25:10;;;;;;;;;7.00;5.00;;;;;22.94;100.00;100512.41;5061585;28;62442;-73
2022/06/24 07:27:36;;;;;;;;;3.00;3.00;;;;;22.95;100.00;100506.06;5052028;28;55270;-74
2022/06/24 07:30:03;;;;;;;;;5.33;4.33;;;;;22.94;100.00;100507.00;5071406;28;45370;-74
2022/06/24 07:32:29;;;;;;;;;5.00;4.00;;;;;22.95;100.00;100505.19;5059036;28;45308;-75
2022/06/24 07:34:54;;;;;;;;;5.67;5.67;;;;;22.96;100.00;100507.84;5067892;28;45535;-75
2022/06/24 07:37:19;;;;;;;;;5.00;5.00;;;;;23.01;100.00;100507.63;5064697;28;66340;-76
2022/06/24 07:39:45;;;;;;;;;9.00;9.00;;;;;23.07;100.00;100509.16;5052145;28;62792;-76
2022/06/24 07:42:10;;;;;;;;;4.00;4.00;;;;;23.05;100.00;100508.34;5053162;28;62370;-78
2022/06/24 07:44:35;;;;;;;;;7.00;5.67;;;;;23.02;100.00;100504.00;5053915;28;51145;-76
2022/06/24 07:47:01;;;;;;;;;5.00;5.00;;;;;22.99;100.00;100498.72;5052498;28;46465;-77
2022/06/24 07:49:26;;;;;;;;;4.00;4.00;;;;;22.98;100.00;100497.84;5055811;28;64271;-77
2022/06/24 07:51:51;;;;;;;;;5.00;3.33;;;;;22.96;100.00;100497.06;5052356;28;45928;-78
2022/06/24 07:54:17;;;;;;;;;5.00;4.00;;;;;22.90;100.00;100510.78;5053922;28;54555;-75
2022/06/24 07:56:58;;;;;;;;;4.00;4.00;;;;;22.85;100.00;100507.41;5061823;28;63802;-77
2022/06/24 07:59:32;;;;;;;;;5.00;4.00;;;;;22.90;100.00;100501.84;5056881;28;45426;-77
2022/06/24 08:01:59;;;;;;;;;4.00;4.00;;;;;22.99;100.00;100506.81;5063603;28;45550;-76
2022/06/24 08:04:25;;;;;;;;;8.00;6.00;;;;;23.06;100.00;100508.25;5062453;28;45329;-76
2022/06/24 08:06:52;;;;;;;;;3.00;3.00;;;;;23.15;100.00;100502.47;5055713;28;47424;-76
2022/06/24 08:09:18;;;;;;;;;5.33;4.00;;;;;23.21;100.00;100502.16;5053154;28;45527;-76
2022/06/24 08:11:44;;;;;;;;;4.67;4.00;;;;;23.34;100.00;100504.31;5052897;28;45440;-76
2022/06/24 08:14:09;;;;;;;;;5.00;4.00;;;;;23.43;100.00;100503.84;5053742;28;45440;-76
2022/06/24 08:16:35;;;;;;;;;6.00;5.00;;;;;23.44;100.00;100502.94;5051319;28;46156;-76
2022/06/24 08:19:00;;;;;;;;;7.00;6.00;;;;;23.49;100.00;100508.97;5050953;28;45491;-75
2022/06/24 08:21:26;;;;;;;;;5.33;5.33;;;;;23.52;100.00;100500.72;5053251;28;45548;-77
2022/06/24 08:23:51;;;;;;;;;6.00;4.67;;;;;23.48;100.00;100504.50;5052044;28;45360;-76
2022/06/24 08:26:17;;;;;;;;;6.00;4.67;;;;;23.39;100.00;100510.38;5050212;28;67755;-76
2022/06/24 08:28:43;;;;;;;;;3.00;3.00;;;;;23.41;100.00;100512.03;5051167;28;45439;-77
2022/06/24 08:31:09;;;;;;;;;4.00;4.00;;;;;23.47;100.00;100511.72;5049276;28;45297;-76
2022/06/24 08:33:34;;;;;;;;;5.67;4.00;;;;;23.53;100.00;100506.03;5050967;28;45511;-75
2022/06/24 08:36:00;;;;;;;;;4.00;4.00;;;;;23.62;100.00;100499.34;5047882;28;46321;-77
2022/06/24 08:38:25;;;;;;;;;5.00;4.00;;;;;23.69;100.00;100497.25;5056836;28;45731;-77
2022/06/24 08:40:53;;;;;;;;;4.00;4.00;;;;;23.76;100.00;100499.59;5051028;28;45491;-76
2022/06/24 08:43:20;;;;;;;;;5.00;5.00;;;;;23.75;100.00;100494.25;5049324;28;45439;-75
2022/06/24 08:45:47;;;;;;;;;4.67;2.33;;;;;23.76;100.00;100496.03;5044964;28;46575;-76
2022/06/24 08:48:12;;;;;;;;;3.00;3.00;;;;;23.83;100.00;100493.91;5049121;28;45368;-76
2022/06/24 08:50:37;;;;;;;;;4.00;4.00;;;;;23.90;100.00;100498.03;5039013;28;45535;-76
2022/06/24 08:53:09;;;;;;;;;3.00;3.00;;;;;24.01;100.00;100498.38;5041648;28;45487;-77
2022/06/24 08:55:40;;;;;;;;;3.00;3.00;;;;;24.14;100.00;100493.25;5056755;28;46365;-76
2022/06/24 08:58:09;;;;;;;;;3.00;2.00;;;;;24.20;100.00;100488.41;5054378;28;45534;-76
2022/06/24 09:00:35;;;;;;;;;3.00;3.00;;;;;24.21;100.00;100494.66;5051648;28;45597;-76
2022/06/24 09:03:02;;;;;;;;;3.00;3.00;;;;;24.19;100.00;100488.50;5053340;28;45483;-76
2022/06/24 09:05:28;;;;;;;;;2.67;2.67;;;;;24.19;100.00;100485.78;5054180;28;47288;-75
2022/06/24 09:08:09;;;;;;;;;2.00;2.00;;;;;24.17;100.00;100482.28;5054306;28;45450;-75
2022/06/24 09:10:37;;;;;;;;;3.00;1.00;;;;;24.15;100.00;100468.88;5053627;28;45451;-74
2022/06/24 09:13:03;;;;;;;;;2.33;2.33;;;;;24.11;100.00;100472.69;5051526;28;45458;-75
2022/06/24 09:15:29;;;;;;;;;2.00;2.00;;;;;24.11;100.00;100455.63;5046788;28;46458;-75
2022/06/24 09:17:54;;;;;;;;;5.00;3.00;;;;;24.13;100.00;100465.41;5055026;28;45439;-74
2022/06/24 09:20:21;;;;;;;;;3.00;3.00;;;;;24.18;100.00;100462.44;5052085;28;45470;-75
2022/06/24 09:22:47;;;;;;;;;3.00;3.00;;;;;24.20;100.00;100453.31;5055427;28;45366;-76
2022/06/24 09:25:13;;;;;;;;;3.00;2.00;;;;;24.27;100.00;100459.28;5054403;28;47434;-75
2022/06/24 09:27:47;;;;;;;;;2.67;2.67;;;;;24.35;100.00;100446.31;5054344;28;45587;-75
2022/06/24 09:30:15;;;;;;;;;2.33;2.33;;;;;24.33;100.00;100441.88;5056516;28;45343;-74
2022/06/24 09:32:54;;;;;;;;;4.67;2.33;;;;;24.25;100.00;100447.69;5052339;28;45512;-76
2022/06/24 09:35:24;;;;;;;;;3.00;2.00;;;;;24.18;100.00;100447.16;5053695;28;47549;-75
2022/06/24 09:37:51;;;;;;;;;3.00;3.00;;;;;24.15;100.00;100449.13;5047900;28;45462;-77
2022/06/24 09:40:23;;;;;;;;;2.00;2.00;;;;;24.13;100.00;100443.81;5050061;28;45297;-75
2022/06/24 09:42:58;;;;;;;;;2.33;2.00;;;;;24.17;100.00;100433.72;5054705;28;45571;-76
2022/06/24 09:45:24;;;;;;;;;2.00;2.00;;;;;24.25;100.00;100436.91;5044630;28;47306;-76
2022/06/24 09:47:50;;;;;;;;;2.33;2.00;;;;;24.23;100.00;100428.88;5049327;28;45486;-76
2022/06/24 09:50:17;;;;;;;;;3.00;3.00;;;;;24.22;100.00;100426.25;5054571;28;45455;-76
2022/06/24 09:52:43;;;;;;;;;4.00;2.00;;;;;24.21;100.00;100421.81;5050201;28;45487;-75
2022/06/24 09:55:10;;;;;;;;;2.00;2.00;;;;;24.22;100.00;100424.44;5055648;28;45858;-75
2022/06/24 09:57:35;;;;;;;;;1.00;1.00;;;;;24.23;100.00;100430.69;5036624;28;45503;-76
2022/06/24 10:02:47;;;;;;;;;1.00;1.00;;;;;24.52;100.00;100416.59;5049314;28;46048;-75
2022/06/24 10:05:15;;;;;;;;;1.00;1.00;;;;;24.65;100.00;100424.88;5058919;28;46687;-72
2022/06/24 10:07:45;;;;;;;;;3.00;3.00;;;;;24.66;100.00;100437.47;5040513;28;45485;-76
2022/06/24 10:10:11;;;;;;;;;3.00;3.00;;;;;24.61;100.00;100427.84;5057180;28;45351;-74
2022/06/24 10:12:46;;;;;;;;;2.00;2.00;;;;;24.56;100.00;100417.31;5050748;28;45371;-73
2022/06/24 10:15:13;;;;;;;;;2.33;2.00;;;;;24.56;100.00;100422.72;5042142;28;46603;-74
2022/06/24 10:17:39;;;;;;;;;2.00;2.00;;;;;24.59;100.00;100418.94;5051622;28;45376;-73
2022/06/24 10:20:05;;;;;;;;;2.00;2.00;;;;;24.66;100.00;100429.34;5049705;28;45598;-73
2022/06/24 10:22:37;;;;;;;;;1.00;1.00;;;;;24.72;100.00;100429.03;5046549;28;45558;-73
2022/06/24 10:25:02;;;;;;;;;2.00;2.00;;;;;24.85;100.00;100423.81;5052218;28;46594;-73
2022/06/24 10:27:59;;;;;;;;;1.00;1.00;;;;;24.94;100.00;100423.31;5049224;28;45400;-72
2022/06/24 10:30:57;;;;;;;;;2.00;1.00;;;;;24.93;100.00;100424.28;5043111;28;45589;-74
2022/06/24 10:33:26;;;;;;;;;1.67;1.67;;;;;24.89;100.00;100428.09;5041434;28;45562;-73
2022/06/24 10:36:06;;;;;;;;;0.33;0.00;;;;;24.85;100.00;100420.25;5055721;28;46707;-72
2022/06/24 10:38:38;;;;;;;;;2.00;2.00;;;;;24.79;100.00;100422.31;5056495;28;45246;-72
2022/06/24 10:41:05;;;;;;;;;1.33;1.33;;;;;24.72;100.00;100415.53;5054716;28;45559;-72
2022/06/24 10:43:41;;;;;;;;;2.00;2.00;;;;;24.60;100.00;100420.69;5054936;28;45605;-73
2022/06/24 10:46:13;;;;;;;;;3.00;1.00;;;;;24.54;100.00;100408.41;5055402;28;46097;-72
2022/06/24 10:48:59;;;;;;;;;2.00;2.00;;;;;24.54;100.00;100417.38;5055906;28;45372;-72
2022/06/24 10:51:28;;;;;;;;;2.00;2.00;;;;;24.72;100.00;100409.25;5056034;28;45336;-74
2022/06/24 10:54:17;;;;;;;;;1.00;1.00;;;;;24.87;100.00;100399.41;5056418;28;45557;-72
2022/06/24 10:56:50;;;;;;;;;1.67;1.00;;;;;24.95;100.00;100399.88;5056074;28;47361;-72
2022/06/24 10:59:19;;;;;;;;;1.00;1.00;;;;;24.93;100.00;100399.06;5056417;28;45432;-71
2022/06/24 11:01:49;;;;;;;;;3.33;2.00;;;;;24.89;100.00;100408.31;5056025;28;45458;-72
2022/06/24 11:04:18;;;;;;;;;2.00;2.00;;;;;24.85;100.00;100406.75;5056067;28;45491;-75
2022/06/24 11:07:05;;;;;;;;;2.67;2.67;;;;;24.77;100.00;100409.88;5056005;28;46713;-72
2022/06/24 11:09:31;;;;;;;;;1.33;1.33;;;;;24.66;100.00;100421.25;5053423;28;45465;-70
2022/06/24 11:11:56;;;;;;;;;2.00;2.00;;;;;24.52;100.00;100418.41;5059226;28;53393;-73
2022/06/24 11:14:25;;;;;;;;;6.00;4.00;;;;;24.43;100.00;100427.00;5047783;28;55881;-73
2022/06/24 11:16:51;;;;;;;;;3.00;2.00;;;;;23.94;100.00;100426.81;5047915;28;46718;-73
2022/06/24 11:19:17;;;;;;;;;6.67;2.00;;;;;23.58;100.00;100426.78;5043359;28;45299;-74
2022/06/24 11:21:49;;;;;;;;;4.00;3.00;;;;;23.45;100.00;100430.09;5039688;28;45461;-73
2022/06/24 11:24:19;;;;;;;;;3.00;3.00;;;;;23.46;100.00;100430.97;5046639;28;45540;-73
2022/06/24 11:27:07;;;;;;;;;4.00;4.00;;;;;23.45;100.00;100424.72;5046608;28;47408;-73
2022/06/24 11:29:52;;;;;;;;;3.67;3.00;;;;;23.48;100.00;100415.59;5039385;28;46478;-73